sensor_id;sensor_type;location;lat;lon;timestamp;temperature;humidity
33841;DHT22;20142;28.494;-16.312;2022-12-10T12:09:22;23.80;90.60
33841;DHT22;20142;28.494;-16.312;2022-12-10T12:15:08;24.40;90.10
33841;DHT22;20142;28.494;-16.312;2022-12-10T12:25:36;24.40;88.50
33841;DHT22;20142;28.494;-16.312;2022-12-10T12:30:44;24.40;88.70
33841;DHT22;20142;28.494;-16.312;2022-12-10T12:35:48;24.60;88.20
33841;DHT22;20142;28.494;-16.312;2022-12-10T12:41:06;24.60;87.70
33841;DHT22;20142;28.494;-16.312;2022-12-10T12:46:20;24.80;87.50
33841;DHT22;20142;28.494;-16.312;2022-12-10T12:51:33;24.90;87.20
33841;DHT22;20142;28.494;-16.312;2022-12-10T13:08:15;24.70;85.80
33841;DHT22;20142;28.494;-16.312;2022-12-10T13:13:34;24.70;85.80
33841;DHT22;20142;28.494;-16.312;2022-12-10T13:18:40;24.70;85.00
33841;DHT22;20142;28.494;-16.312;2022-12-10T13:23:50;24.70;84.80
33841;DHT22;20142;28.494;-16.312;2022-12-10T13:29:10;24.60;84.50
33841;DHT22;20142;28.494;-16.312;2022-12-10T13:34:36;24.60;84.80
33841;DHT22;20142;28.494;-16.312;2022-12-10T13:39:50;24.70;84.70
33841;DHT22;20142;28.494;-16.312;2022-12-10T13:50:38;24.70;83.80
33841;DHT22;20142;28.494;-16.312;2022-12-10T14:07:15;24.80;83.50
33841;DHT22;20142;28.494;-16.312;2022-12-10T14:17:39;24.70;83.60
33841;DHT22;20142;28.494;-16.312;2022-12-10T14:22:47;24.90;83.30
33841;DHT22;20142;28.494;-16.312;2022-12-10T14:28:19;24.80;82.60
33841;DHT22;20142;28.494;-16.312;2022-12-10T14:33:22;24.80;83.10
33841;DHT22;20142;28.494;-16.312;2022-12-10T14:38:33;25.00;82.80
33841;DHT22;20142;28.494;-16.312;2022-12-10T14:43:40;25.10;82.30
33841;DHT22;20142;28.494;-16.312;2022-12-10T14:48:43;24.80;82.70
33841;DHT22;20142;28.494;-16.312;2022-12-10T14:53:46;24.60;82.30
33841;DHT22;20142;28.494;-16.312;2022-12-10T14:59:19;24.40;82.40
33841;DHT22;20142;28.494;-16.312;2022-12-10T15:04:23;24.10;82.50
33841;DHT22;20142;28.494;-16.312;2022-12-10T15:09:26;24.10;82.70
33841;DHT22;20142;28.494;-16.312;2022-12-10T15:14:29;24.10;82.60
33841;DHT22;20142;28.494;-16.312;2022-12-10T15:19:32;24.20;82.90
33841;DHT22;20142;28.494;-16.312;2022-12-10T15:24:35;24.00;82.70
33841;DHT22;20142;28.494;-16.312;2022-12-10T15:29:38;23.80;82.80
33841;DHT22;20142;28.494;-16.312;2022-12-10T15:34:49;24.00;82.70
33841;DHT22;20142;28.494;-16.312;2022-12-10T15:39:57;24.20;82.20
33841;DHT22;20142;28.494;-16.312;2022-12-10T15:45:04;24.30;82.30
33841;DHT22;20142;28.494;-16.312;2022-12-10T15:50:12;24.40;82.30
33841;DHT22;20142;28.494;-16.312;2022-12-10T15:55:14;24.50;82.10
33841;DHT22;20142;28.494;-16.312;2022-12-10T16:00:25;24.50;81.90
33841;DHT22;20142;28.494;-16.312;2022-12-10T16:05:36;24.20;82.10
33841;DHT22;20142;28.494;-16.312;2022-12-10T16:10:38;24.10;82.20
33841;DHT22;20142;28.494;-16.312;2022-12-10T16:15:54;23.80;82.50
33841;DHT22;20142;28.494;-16.312;2022-12-10T16:20:58;23.50;83.50
33841;DHT22;20142;28.494;-16.312;2022-12-10T16:26:00;23.50;83.60
33841;DHT22;20142;28.494;-16.312;2022-12-10T16:31:02;23.30;83.90
33841;DHT22;20142;28.494;-16.312;2022-12-10T16:36:04;23.20;84.40
33841;DHT22;20142;28.494;-16.312;2022-12-10T16:41:26;23.10;84.50
33841;DHT22;20142;28.494;-16.312;2022-12-10T16:46:29;22.80;84.70
33841;DHT22;20142;28.494;-16.312;2022-12-10T16:51:31;22.70;85.10
33841;DHT22;20142;28.494;-16.312;2022-12-10T16:56:33;22.60;85.40
33841;DHT22;20142;28.494;-16.312;2022-12-10T17:01:35;22.50;85.90
33841;DHT22;20142;28.494;-16.312;2022-12-10T17:06:37;22.60;86.20
33841;DHT22;20142;28.494;-16.312;2022-12-10T17:11:40;22.50;86.10
33841;DHT22;20142;28.494;-16.312;2022-12-10T17:16:45;22.50;86.50
33841;DHT22;20142;28.494;-16.312;2022-12-10T17:21:47;22.50;86.30
33841;DHT22;20142;28.494;-16.312;2022-12-10T17:26:49;22.40;86.80
33841;DHT22;20142;28.494;-16.312;2022-12-10T17:31:51;22.20;86.90
33841;DHT22;20142;28.494;-16.312;2022-12-10T17:36:53;22.20;87.20
33841;DHT22;20142;28.494;-16.312;2022-12-10T17:41:55;22.20;87.50
33841;DHT22;20142;28.494;-16.312;2022-12-10T17:46:57;22.10;87.30
33841;DHT22;20142;28.494;-16.312;2022-12-10T17:51:59;22.00;87.80
33841;DHT22;20142;28.494;-16.312;2022-12-10T17:57:01;21.90;88.00
33841;DHT22;20142;28.494;-16.312;2022-12-10T18:02:03;21.70;88.40
33841;DHT22;20142;28.494;-16.312;2022-12-10T18:07:12;21.70;88.70
33841;DHT22;20142;28.494;-16.312;2022-12-10T18:12:15;21.70;89.10
33841;DHT22;20142;28.494;-16.312;2022-12-10T18:17:17;21.70;89.00
33841;DHT22;20142;28.494;-16.312;2022-12-10T18:22:19;21.80;89.10
33841;DHT22;20142;28.494;-16.312;2022-12-10T18:27:20;21.60;89.30
33841;DHT22;20142;28.494;-16.312;2022-12-10T18:32:23;21.70;89.40
33841;DHT22;20142;28.494;-16.312;2022-12-10T18:37:24;21.70;89.70
33841;DHT22;20142;28.494;-16.312;2022-12-10T18:42:26;21.70;89.70
33841;DHT22;20142;28.494;-16.312;2022-12-10T18:47:28;21.80;89.70
33841;DHT22;20142;28.494;-16.312;2022-12-10T18:52:29;21.80;90.20
33841;DHT22;20142;28.494;-16.312;2022-12-10T18:57:31;21.80;90.10
33841;DHT22;20142;28.494;-16.312;2022-12-10T19:02:33;21.70;90.10
33841;DHT22;20142;28.494;-16.312;2022-12-10T19:07:35;21.70;90.30
33841;DHT22;20142;28.494;-16.312;2022-12-10T19:12:36;21.80;90.30
33841;DHT22;20142;28.494;-16.312;2022-12-10T19:17:38;21.70;90.40
33841;DHT22;20142;28.494;-16.312;2022-12-10T19:22:41;21.70;90.30
33841;DHT22;20142;28.494;-16.312;2022-12-10T19:27:43;21.70;90.60
33841;DHT22;20142;28.494;-16.312;2022-12-10T19:32:45;21.60;90.90
33841;DHT22;20142;28.494;-16.312;2022-12-10T19:37:49;21.70;90.90
33841;DHT22;20142;28.494;-16.312;2022-12-10T19:42:51;21.70;90.90
33841;DHT22;20142;28.494;-16.312;2022-12-10T19:47:53;21.70;90.90
33841;DHT22;20142;28.494;-16.312;2022-12-10T19:52:57;21.70;91.00
33841;DHT22;20142;28.494;-16.312;2022-12-10T19:58:02;21.70;91.00
33841;DHT22;20142;28.494;-16.312;2022-12-10T20:03:03;21.70;91.40
33841;DHT22;20142;28.494;-16.312;2022-12-10T20:08:05;21.70;91.10
33841;DHT22;20142;28.494;-16.312;2022-12-10T20:13:07;21.80;91.40
33841;DHT22;20142;28.494;-16.312;2022-12-10T20:18:09;21.80;91.20
33841;DHT22;20142;28.494;-16.312;2022-12-10T20:23:10;21.70;91.50
33841;DHT22;20142;28.494;-16.312;2022-12-10T20:28:12;21.70;91.50
33841;DHT22;20142;28.494;-16.312;2022-12-10T20:33:15;21.60;91.70
33841;DHT22;20142;28.494;-16.312;2022-12-10T20:38:17;21.70;91.60
33841;DHT22;20142;28.494;-16.312;2022-12-10T20:43:19;21.80;91.50
33841;DHT22;20142;28.494;-16.312;2022-12-10T20:48:20;21.70;91.50
33841;DHT22;20142;28.494;-16.312;2022-12-10T20:53:22;21.80;91.50
33841;DHT22;20142;28.494;-16.312;2022-12-10T20:58:24;21.80;91.60
33841;DHT22;20142;28.494;-16.312;2022-12-10T21:03:25;21.70;91.50
33841;DHT22;20142;28.494;-16.312;2022-12-10T21:08:27;21.70;91.50
33841;DHT22;20142;28.494;-16.312;2022-12-10T21:13:29;21.60;91.90
33841;DHT22;20142;28.494;-16.312;2022-12-10T21:18:31;21.50;91.70
33841;DHT22;20142;28.494;-16.312;2022-12-10T21:23:33;21.60;92.00
33841;DHT22;20142;28.494;-16.312;2022-12-10T21:28:34;21.70;92.10
33841;DHT22;20142;28.494;-16.312;2022-12-10T21:33:36;21.70;92.20
33841;DHT22;20142;28.494;-16.312;2022-12-10T21:38:38;21.60;92.00
33841;DHT22;20142;28.494;-16.312;2022-12-10T21:43:40;21.50;92.10
33841;DHT22;20142;28.494;-16.312;2022-12-10T21:48:42;21.60;92.20
33841;DHT22;20142;28.494;-16.312;2022-12-10T21:53:44;21.60;92.30
33841;DHT22;20142;28.494;-16.312;2022-12-10T21:58:46;21.50;92.50
33841;DHT22;20142;28.494;-16.312;2022-12-10T22:03:47;21.50;92.50
33841;DHT22;20142;28.494;-16.312;2022-12-10T22:08:49;21.60;92.50
33841;DHT22;20142;28.494;-16.312;2022-12-10T22:13:52;21.60;92.60
33841;DHT22;20142;28.494;-16.312;2022-12-10T22:18:55;21.70;92.50
33841;DHT22;20142;28.494;-16.312;2022-12-10T22:23:57;21.70;92.50
33841;DHT22;20142;28.494;-16.312;2022-12-10T22:28:58;21.60;92.30
33841;DHT22;20142;28.494;-16.312;2022-12-10T22:34:00;21.60;92.80
33841;DHT22;20142;28.494;-16.312;2022-12-10T22:39:02;21.70;92.40
33841;DHT22;20142;28.494;-16.312;2022-12-10T22:44:03;21.60;92.60
33841;DHT22;20142;28.494;-16.312;2022-12-10T22:49:05;21.60;93.10
33841;DHT22;20142;28.494;-16.312;2022-12-10T22:54:07;21.70;93.00
33841;DHT22;20142;28.494;-16.312;2022-12-10T22:59:09;21.60;92.60
33841;DHT22;20142;28.494;-16.312;2022-12-10T23:04:12;21.50;92.80
33841;DHT22;20142;28.494;-16.312;2022-12-10T23:09:13;21.40;93.00
33841;DHT22;20142;28.494;-16.312;2022-12-10T23:14:15;21.40;92.60
33841;DHT22;20142;28.494;-16.312;2022-12-10T23:19:17;21.40;93.30
33841;DHT22;20142;28.494;-16.312;2022-12-10T23:24:19;21.30;93.00
33841;DHT22;20142;28.494;-16.312;2022-12-10T23:29:21;21.30;93.00
33841;DHT22;20142;28.494;-16.312;2022-12-10T23:34:23;21.30;93.30
33841;DHT22;20142;28.494;-16.312;2022-12-10T23:39:25;21.30;92.90
33841;DHT22;20142;28.494;-16.312;2022-12-10T23:44:26;21.30;92.80
33841;DHT22;20142;28.494;-16.312;2022-12-10T23:49:28;21.30;92.50
33841;DHT22;20142;28.494;-16.312;2022-12-10T23:54:30;21.30;92.80
33841;DHT22;20142;28.494;-16.312;2022-12-10T23:59:33;21.20;92.70
